Time;durP1;ratioP1;P1;durP2;ratioP2;P2;SDS_P1;SDS_P2;PMS_P1;PMS_P2;Temp;Humidity;BMP_temperature;BMP_pressure;BME280_temperature;BME280_humidity;BME280_pressure;Samples;Min_cycle;Max_cycle;Signal;HPM_P1;HPM_P2
2021/09/30 00:00:41;;;;;;;14.28;11.60;;;;;;;7.45;76.36;101829.68;1799180;78;20970;-72
2021/09/30 00:03:11;;;;;;;14.23;11.43;;;;;;;7.47;76.36;101828.30;1823623;78;21050;-71
2021/09/30 00:05:38;;;;;;;16.70;11.50;;;;;;;7.50;76.39;101826.84;1816421;78;21786;-72
2021/09/30 00:08:06;;;;;;;13.80;11.45;;;;;;;7.51;76.40;101829.00;1796302;78;21782;-72
2021/09/30 00:10:33;;;;;;;13.55;11.20;;;;;;;7.52;76.44;101826.77;1796337;78;21418;-72
2021/09/30 00:13:08;;;;;;;16.87;11.30;;;;;;;7.53;76.48;101825.41;1811629;78;20952;-70
2021/09/30 00:40:53;;;;;;;11.40;10.08;;;;;;;7.74;76.60;101825.78;1760076;81;20992;-71
2021/09/30 00:45:26;;;;;;;12.85;10.32;;;;;;;7.77;76.59;101823.92;1798452;78;21326;-71
2021/09/30 00:50:28;;;;;;;14.70;11.30;;;;;;;7.79;76.60;101817.66;1794422;78;20999;-70
2021/09/30 00:53:14;;;;;;;12.82;10.23;;;;;;;7.81;76.60;101825.48;1819279;78;21418;-71
2021/09/30 01:20:00;;;;;;;9.70;7.72;;;;;;;8.15;75.12;101818.24;1743978;80;20975;-71
2021/09/30 01:33:20;;;;;;;10.43;6.65;;;;;;;8.16;73.59;101808.95;1795656;78;21038;-71
2021/09/30 02:59:57;;;;;;;8.45;7.37;;;;;;;8.84;69.37;101840.40;1781360;80;21039;-70
2021/09/30 03:02:26;;;;;;;9.68;7.80;;;;;;;8.83;69.55;101840.02;1774218;80;21866;-71
2021/09/30 03:04:52;;;;;;;12.13;7.92;;;;;;;8.82;69.49;101840.94;1806914;78;21018;-70
2021/09/30 03:07:19;;;;;;;11.83;8.70;;;;;;;8.83;69.42;101841.80;1822334;78;20999;-71
2021/09/30 03:09:47;;;;;;;13.20;9.20;;;;;;;8.85;69.38;101839.93;1826484;78;21461;-71
2021/09/30 03:12:22;;;;;;;10.85;9.63;;;;;;;8.86;69.30;101841.17;1776269;78;21066;-71
2021/09/30 03:14:48;;;;;;;9.83;8.73;;;;;;;8.88;69.12;101843.76;1812805;78;21812;-71
2021/09/30 03:17:19;;;;;;;10.03;8.45;;;;;;;8.88;69.15;101841.13;1794684;78;20975;-71
2021/09/30 03:19:56;;;;;;;12.00;8.78;;;;;;;8.86;69.16;101846.44;1759016;81;20946;-71
2021/09/30 03:22:19;;;;;;;10.38;9.18;;;;;;;8.86;69.21;101840.31;1765076;80;21028;-70
2021/09/30 03:24:48;;;;;;;10.82;8.55;;;;;;;8.87;69.25;101845.97;1774885;80;21090;-71
2021/09/30 03:27:17;;;;;;;11.25;9.10;;;;;;;8.89;69.19;101841.51;1810802;77;21794;-71
2021/09/30 03:29:46;;;;;;;13.22;9.53;;;;;;;8.89;69.21;101842.36;1794776;78;20991;-71
2021/09/30 03:32:12;;;;;;;13.90;10.68;;;;;;;8.92;69.19;101844.45;1748758;81;20947;-71
2021/09/30 03:34:55;;;;;;;14.35;11.20;;;;;;;8.93;69.20;101847.00;1727833;82;21082;-70
2021/09/30 03:37:24;;;;;;;12.53;10.60;;;;;;;8.93;69.15;101845.69;1741766;80;20947;-70
2021/09/30 03:39:50;;;;;;;15.13;11.05;;;;;;;8.92;69.16;101843.98;1743061;81;21779;-70
2021/09/30 03:42:18;;;;;;;13.03;11.40;;;;;;;8.88;69.18;101845.08;1746953;81;20980;-70
2021/09/30 03:44:46;;;;;;;21.40;16.05;;;;;;;8.87;69.32;101846.83;1770459;81;21047;-69
2021/09/30 03:47:14;;;;;;;20.80;15.65;;;;;;;8.87;69.42;101846.83;1744043;81;20936;-70
2021/09/30 03:49:51;;;;;;;15.72;12.85;;;;;;;8.88;69.49;101841.97;1741579;81;21055;-71
2021/09/30 03:52:29;;;;;;;14.90;11.43;;;;;;;8.91;69.48;101848.02;1744490;81;22254;-69
2021/09/30 04:00:05;;;;;;;13.95;10.38;;;;;;;8.93;69.27;101843.05;1729003;81;20949;-71
2021/09/30 04:02:40;;;;;;;13.22;10.45;;;;;;;8.95;69.26;101847.77;1753398;81;20976;-71
2021/09/30 04:05:08;;;;;;;13.48;12.07;;;;;;;8.97;69.37;101854.28;1754163;81;22742;-71
2021/09/30 04:07:34;;;;;;;13.68;11.60;;;;;;;8.96;69.46;101846.84;1758811;81;21407;-71
2021/09/30 04:10:04;;;;;;;16.25;12.20;;;;;;;8.98;69.45;101848.11;1750139;81;20964;-72
2021/09/30 04:12:31;;;;;;;12.47;11.18;;;;;;;9.00;69.40;101848.88;1735234;81;20944;-71
2021/09/30 04:14:58;;;;;;;12.82;10.48;;;;;;;9.03;69.33;101856.63;1735203;81;20983;-71
2021/09/30 04:17:25;;;;;;;11.57;10.20;;;;;;;9.03;68.94;101854.84;1735003;81;21795;-72
2021/09/30 04:19:52;;;;;;;13.18;10.38;;;;;;;9.07;68.73;101856.85;1735684;81;21003;-71
2021/09/30 04:22:19;;;;;;;14.53;9.68;;;;;;;9.10;68.55;101852.30;1743862;81;21043;-72
2021/09/30 04:24:48;;;;;;;13.30;8.85;;;;;;;9.12;68.29;101852.22;1765260;81;20972;-72
2021/09/30 04:27:16;;;;;;;11.48;9.48;;;;;;;9.15;68.16;101854.70;1765322;81;21014;-71
2021/09/30 04:29:44;;;;;;;13.65;10.32;;;;;;;9.15;67.81;101856.02;1744702;81;21770;-71
2021/09/30 04:32:11;;;;;;;12.50;9.55;;;;;;;9.14;67.74;101862.22;1735018;79;20935;-72
2021/09/30 04:34:38;;;;;;;12.65;9.23;;;;;;;9.14;67.43;101863.53;1745213;81;20995;-71
2021/09/30 04:37:06;;;;;;;11.03;8.88;;;;;;;9.13;67.21;101865.78;1765155;80;21077;-72
2021/09/30 04:39:33;;;;;;;11.15;8.83;;;;;;;9.15;67.13;101857.33;1753688;81;21430;-74
2021/09/30 04:42:02;;;;;;;11.88;8.93;;;;;;;9.15;66.96;101863.45;1735091;81;21861;-72
2021/09/30 04:44:29;;;;;;;10.23;8.93;;;;;;;9.16;66.78;101862.52;1709905;81;21019;-72
2021/09/30 04:46:55;;;;;;;13.50;9.13;;;;;;;9.17;66.60;101858.98;1750003;81;21054;-77
2021/09/30 04:49:26;;;;;;;10.70;8.15;;;;;;;9.20;66.56;101861.07;1730146;82;21055;-74
2021/09/30 04:51:52;;;;;;;13.50;9.28;;;;;;;9.22;66.58;101861.38;1752111;81;20992;-74
2021/09/30 04:54:19;;;;;;;11.28;8.70;;;;;;;9.23;66.30;101867.03;1726279;83;21782;-72
2021/09/30 04:56:46;;;;;;;10.08;8.28;;;;;;;9.23;66.15;101859.59;1765495;80;21056;-74
2021/09/30 04:59:14;;;;;;;10.53;9.20;;;;;;;9.22;66.09;101860.05;1754065;80;20977;-73
2021/09/30 05:01:42;;;;;;;12.70;9.65;;;;;;;9.23;66.14;101869.67;1753086;80;20956;-72
2021/09/30 05:04:11;;;;;;;13.45;9.63;;;;;;;9.27;66.19;101871.70;1748823;81;20953;-73
2021/09/30 05:06:39;;;;;;;12.75;9.03;;;;;;;9.28;66.23;101867.67;1753155;80;20936;-71
2021/09/30 05:09:05;;;;;;;10.13;9.03;;;;;;;9.33;66.30;101872.23;1726825;83;21056;-71
2021/09/30 05:11:46;;;;;;;9.68;8.00;;;;;;;9.35;66.19;101865.55;1755566;81;20929;-72
2021/09/30 05:14:02;;;;;;;12.82;9.38;;;;;;;9.38;66.14;101873.34;1739060;81;21031;-72
2021/09/30 05:16:31;;;;;;;13.43;9.25;;;;;;;9.38;65.80;101876.83;1756865;81;20936;-71
2021/09/30 05:18:59;;;;;;;16.90;8.35;;;;;;;9.33;65.56;101876.19;1745590;81;22206;-72
2021/09/30 05:21:28;;;;;;;11.88;8.25;;;;;;;9.33;65.57;101880.14;1765172;81;21056;-72
2021/09/30 05:23:56;;;;;;;10.80;8.75;;;;;;;9.38;65.50;101875.50;1757067;81;21043;-71
2021/09/30 05:26:22;;;;;;;15.35;8.05;;;;;;;9.44;65.35;101886.19;1735074;80;21415;-71
2021/09/30 05:28:49;;;;;;;9.73;7.83;;;;;;;9.47;65.02;101880.78;1736273;81;20924;-73
2021/09/30 05:31:15;;;;;;;10.82;7.28;;;;;;;9.50;64.69;101885.89;1757102;79;21769;-73
2021/09/30 05:33:47;;;;;;;8.70;7.33;;;;;;;9.54;64.66;101886.11;1735814;80;21036;-73
2021/09/30 05:36:14;;;;;;;10.75;6.12;;;;;;;9.60;64.33;101883.64;1773949;80;21431;-74
2021/09/30 05:38:41;;;;;;;10.58;6.90;;;;;;;9.63;63.46;101889.59;1746265;81;20961;-72
2021/09/30 05:41:08;;;;;;;12.93;6.65;;;;;;;9.62;63.15;101893.17;1757192;81;21030;-73
2021/09/30 05:43:37;;;;;;;10.72;7.12;;;;;;;9.64;63.20;101889.98;1818269;78;22625;-71
2021/09/30 05:46:05;;;;;;;9.83;6.65;;;;;;;9.73;63.20;101896.58;1813725;78;20936;-73
2021/09/30 05:48:31;;;;;;;7.28;6.42;;;;;;;9.80;62.88;101894.48;1814289;78;21381;-75
2021/09/30 05:50:58;;;;;;;9.70;6.70;;;;;;;9.86;62.41;101892.86;1731065;81;21047;-74
2021/09/30 05:53:38;;;;;;;8.30;6.75;;;;;;;9.91;62.30;101900.05;1749432;80;21031;-73
2021/09/30 05:56:09;;;;;;;12.28;6.40;;;;;;;9.97;62.30;101899.73;1747879;81;22651;-72
2021/09/30 05:58:36;;;;;;;7.72;6.40;;;;;;;10.03;61.98;101903.36;1822774;78;20995;-73
2021/09/30 06:14:12;;;;;;;6.17;5.50;;;;;;;10.29;60.82;101914.74;1740175;80;20994;-73
2021/09/30 06:16:44;;;;;;;7.12;5.70;;;;;;;10.29;60.65;101905.50;1761216;80;21063;-72
2021/09/30 06:19:06;;;;;;;6.72;5.50;;;;;;;10.31;60.48;101918.15;1805991;78;21003;-74
2021/09/30 06:21:34;;;;;;;7.37;5.83;;;;;;;10.33;60.56;101920.73;1756808;81;21470;-78
2021/09/30 06:24:00;;;;;;;9.00;5.65;;;;;;;10.39;60.69;101916.89;1760268;81;20922;-78
2021/09/30 06:26:28;;;;;;;10.60;5.37;;;;;;;10.47;60.71;101918.66;1756210;80;21028;-75
2021/09/30 06:29:08;;;;;;;8.88;5.58;;;;;;;10.52;60.57;101915.31;1759673;80;21006;-75
2021/09/30 06:31:35;;;;;;;6.67;5.12;;;;;;;10.57;60.51;101915.42;1819281;78;20924;-76
2021/09/30 06:34:05;;;;;;;7.30;5.60;;;;;;;10.59;60.09;101916.19;1766361;78;21802;-75
2021/09/30 06:36:36;;;;;;;7.85;5.40;;;;;;;10.58;59.81;101918.45;1800683;78;21098;-75
2021/09/30 06:39:03;;;;;;;7.35;5.30;;;;;;;10.59;59.62;101922.80;1776590;80;21098;-75
2021/09/30 06:41:32;;;;;;;6.00;5.40;;;;;;;10.62;59.57;101913.87;1751741;80;21025;-74
2021/09/30 06:44:17;;;;;;;6.75;5.05;;;;;;;10.66;59.29;101926.43;1772266;80;21063;-75
2021/09/30 06:46:46;;;;;;;8.50;5.28;;;;;;;10.67;58.79;101918.88;1782951;80;21831;-74
2021/09/30 06:49:14;;;;;;;8.75;5.40;;;;;;;10.63;58.49;101920.86;1779095;80;20968;-71
2021/09/30 06:51:50;;;;;;;11.20;5.47;;;;;;;10.60;58.81;101918.36;1737881;80;21024;-72
2021/09/30 06:54:17;;;;;;;8.05;5.50;;;;;;;10.66;59.11;101920.67;1781024;80;21430;-73
2021/09/30 06:57:02;;;;;;;6.80;4.80;;;;;;;10.78;59.07;101921.31;1763924;80;20925;-71
2021/09/30 06:59:47;;;;;;;6.65;4.85;;;;;;;10.89;59.02;101923.35;1785604;80;21841;-71
2021/09/30 07:02:34;;;;;;;7.53;4.83;;;;;;;11.02;59.01;101918.25;1758141;80;21351;-74
2021/09/30 07:05:19;;;;;;;8.68;4.70;;;;;;;11.16;58.63;101924.91;1792588;80;21016;-72
2021/09/30 07:07:47;;;;;;;5.17;4.50;;;;;;;11.27;58.28;101925.61;1773117;80;21471;-71
2021/09/30 07:10:16;;;;;;;5.53;4.60;;;;;;;11.35;57.59;101924.23;1761207;80;21044;-70
2021/09/30 07:12:44;;;;;;;5.45;4.42;;;;;;;11.44;57.66;101929.47;1698036;84;20992;-71
2021/09/30 07:15:11;;;;;;;6.35;4.53;;;;;;;11.53;56.68;101924.11;1705054;82;21490;-69
2021/09/30 07:17:37;;;;;;;6.05;4.55;;;;;;;11.53;55.83;101924.11;1712586;82;21083;-70
2021/09/30 07:20:06;;;;;;;5.55;4.40;;;;;;;11.54;55.97;101925.34;1788916;80;20925;-70
2021/09/30 07:22:32;;;;;;;6.22;4.62;;;;;;;11.60;55.29;101928.95;1774727;80;20944;-72
2021/09/30 07:25:00;;;;;;;5.05;4.45;;;;;;;11.60;54.33;101929.43;1790047;80;21843;-74
2021/09/30 07:27:26;;;;;;;5.95;4.22;;;;;;;11.58;54.92;101922.91;1768337;78;21001;-72
2021/09/30 07:29:53;;;;;;;6.62;5.05;;;;;;;11.68;54.98;101934.66;1762299;80;21050;-73
2021/09/30 07:32:20;;;;;;;6.42;4.35;;;;;;;11.75;54.98;101919.23;1783747;79;21403;-72
2021/09/30 07:34:46;;;;;;;5.17;4.67;;;;;;;11.85;54.78;101922.22;1788011;80;21537;-73
2021/09/30 07:37:13;;;;;;;5.05;3.95;;;;;;;11.92;54.35;101921.77;1778792;78;22393;-70
2021/09/30 07:39:39;;;;;;;7.97;4.75;;;;;;;11.96;54.44;101919.30;1824919;78;21441;-70
2021/09/30 07:42:06;;;;;;;5.60;4.37;;;;;;;11.99;54.35;101913.84;1810843;78;21046;-72
2021/09/30 07:44:33;;;;;;;5.28;4.30;;;;;;;12.08;54.35;101916.88;1802910;78;20955;-73
2021/09/30 07:47:00;;;;;;;6.35;4.00;;;;;;;12.19;53.93;101916.59;1755723;81;21036;-73
2021/09/30 07:49:27;;;;;;;6.15;4.22;;;;;;;12.28;52.74;101913.84;1716684;81;21844;-73
2021/09/30 07:51:54;;;;;;;4.78;4.33;;;;;;;12.18;52.17;101912.72;1729113;81;21482;-73
2021/09/30 07:54:21;;;;;;;7.22;4.33;;;;;;;12.10;52.36;101917.16;1734034;81;20952;-76
2021/09/30 07:56:48;;;;;;;6.45;3.80;;;;;;;12.14;53.07;101916.48;1736319;81;20989;-76
2021/09/30 07:59:14;;;;;;;5.25;4.20;;;;;;;12.27;52.33;101916.12;1749699;81;20985;-73
2021/09/30 08:01:40;;;;;;;7.67;4.10;;;;;;;12.31;51.74;101910.52;1737019;81;21794;-72
2021/09/30 08:04:07;;;;;;;6.05;3.92;;;;;;;12.29;52.21;101911.58;1740926;81;21035;-73
2021/09/30 08:06:34;;;;;;;6.67;3.95;;;;;;;12.33;51.43;101909.95;1735813;81;21110;-72
2021/09/30 08:09:02;;;;;;;4.47;4.08;;;;;;;12.26;51.43;101911.30;1727609;81;21000;-73
2021/09/30 08:11:30;;;;;;;7.42;4.08;;;;;;;12.30;51.33;101906.65;1753088;81;21052;-72
2021/09/30 08:13:56;;;;;;;5.90;3.83;;;;;;;12.36;51.82;101908.08;1759856;80;21787;-71
2021/09/30 08:16:23;;;;;;;7.00;4.90;;;;;;;12.45;51.76;101896.42;1756563;81;20932;-71
2021/09/30 08:18:52;;;;;;;5.78;3.95;;;;;;;12.52;51.98;101897.72;1756672;81;20980;-71
2021/09/30 08:21:18;;;;;;;9.45;4.30;;;;;;;12.64;51.81;101901.86;1737563;81;21123;-72
2021/09/30 08:23:45;;;;;;;6.67;3.98;;;;;;;12.74;51.24;101902.97;1744979;81;20933;-72
2021/09/30 08:26:13;;;;;;;5.67;4.20;;;;;;;12.78;50.59;101897.87;1728622;81;21747;-73
2021/09/30 08:28:40;;;;;;;5.97;4.30;;;;;;;12.82;50.14;101899.36;1751277;81;21031;-72
2021/09/30 08:31:06;;;;;;;5.47;3.62;;;;;;;12.84;50.49;101900.98;1755813;81;21079;-74
2021/09/30 08:33:39;;;;;;;7.28;3.92;;;;;;;12.95;49.53;101898.96;1758476;81;20944;-71
2021/09/30 08:36:02;;;;;;;5.25;3.95;;;;;;;12.95;50.05;101891.48;1742409;81;21030;-71
2021/09/30 08:38:28;;;;;;;6.12;4.22;;;;;;;12.98;49.58;101899.23;1744179;80;21771;-72
2021/09/30 08:40:54;;;;;;;5.12;3.90;;;;;;;12.95;48.39;101890.16;1755226;81;20983;-71
2021/09/30 08:43:21;;;;;;;4.95;3.40;;;;;;;12.85;48.48;101890.75;1764413;81;20920;-73
2021/09/30 08:45:48;;;;;;;5.33;3.80;;;;;;;12.87;49.52;101902.58;1754252;80;21534;-70
2021/09/30 08:48:16;;;;;;;4.42;3.15;;;;;;;12.97;48.62;101893.55;1762850;80;21531;-71
2021/09/30 08:50:43;;;;;;;5.53;3.47;;;;;;;13.00;48.97;101894.66;1765424;80;22165;-71
2021/09/30 08:53:11;;;;;;;4.22;3.15;;;;;;;13.08;48.53;101889.23;1761897;80;21470;-72
2021/09/30 08:55:39;;;;;;;7.97;3.17;;;;;;;13.20;49.09;101892.06;1777549;80;21063;-71
2021/09/30 08:58:07;;;;;;;4.83;3.50;;;;;;;13.33;48.73;101887.18;1819609;78;21018;-72
2021/09/30 09:00:37;;;;;;;6.62;3.40;;;;;;;13.36;47.48;101886.11;1800286;78;21469;-71
2021/09/30 09:03:04;;;;;;;4.55;3.05;;;;;;;13.29;47.20;101883.48;1803046;78;21832;-73
2021/09/30 09:05:30;;;;;;;4.12;3.00;;;;;;;13.25;47.47;101876.70;1758828;81;22185;-72
2021/09/30 09:08:04;;;;;;;5.00;2.80;;;;;;;13.29;47.72;101880.36;1760104;80;21040;-70
2021/09/30 09:10:41;;;;;;;5.47;2.80;;;;;;;13.41;48.21;101871.59;1754261;81;21464;-70
2021/09/30 09:13:12;;;;;;;6.53;2.70;;;;;;;13.53;45.78;101879.20;1771030;80;21024;-70
2021/09/30 09:15:47;;;;;;;3.47;2.65;;;;;;;13.52;46.45;101870.02;1748696;81;21696;-71
2021/09/30 09:18:33;;;;;;;6.75;3.22;;;;;;;13.54;45.55;101872.94;1743200;81;21394;-70
2021/09/30 09:21:19;;;;;;;4.83;3.22;;;;;;;13.59;46.90;101873.94;1744349;81;20935;-72
2021/09/30 09:23:56;;;;;;;;;;;;;;;13.77;46.21;101866.52;1725309;79;21415;-71
2021/09/30 09:26:35;;;;;;;3.45;2.60;;;;;;;13.94;45.83;101867.53;1743041;81;20133;-71
2021/09/30 09:29:13;;;;;;;7.08;2.95;;;;;;;14.10;45.63;101869.97;1732036;81;21875;-73
2021/09/30 09:31:49;;;;;;;4.60;2.70;;;;;;;14.24;44.97;101869.34;1769920;79;20995;-72
2021/09/30 09:34:30;;;;;;;3.47;2.25;;;;;;;14.33;43.96;101860.72;1742725;82;21007;-72
2021/09/30 09:37:20;;;;;;;6.50;2.60;;;;;;;14.36;43.76;101863.63;1748354;81;21460;-73
2021/09/30 09:39:48;;;;;;;4.72;2.60;;;;;;;14.39;44.15;101863.44;1730022;82;21007;-73
2021/09/30 09:42:18;;;;;;;4.72;3.02;;;;;;;14.52;43.79;101862.09;1760119;81;21825;-70
2021/09/30 09:45:00;;;;;;;4.53;3.10;;;;;;;14.59;44.04;101862.88;1760249;81;20931;-70
2021/09/30 09:47:31;;;;;;;4.95;3.33;;;;;;;14.72;43.52;101858.83;1791405;80;21030;-71
2021/09/30 09:50:21;;;;;;;3.72;3.10;;;;;;;14.78;44.07;101857.54;1791489;79;21018;-72
2021/09/30 09:52:58;;;;;;;5.05;3.30;;;;;;;14.94;44.20;101853.25;1793771;78;21070;-72
2021/09/30 09:55:33;;;;;;;5.42;3.10;;;;;;;15.17;44.29;101861.71;1816095;78;21913;-73
2021/09/30 09:58:13;;;;;;;6.35;2.92;;;;;;;15.33;42.87;101862.23;1791647;78;20991;-73
2021/09/30 10:00:58;;;;;;;6.30;3.12;;;;;;;15.45;43.87;101868.46;1790740;80;21007;-73
2021/09/30 10:03:33;;;;;;;4.58;2.90;;;;;;;15.69;42.58;101859.94;1812368;78;21047;-72
2021/09/30 10:06:04;;;;;;;6.30;3.27;;;;;;;15.78;41.33;101855.72;1808067;78;21011;-72
2021/09/30 10:08:32;;;;;;;3.77;2.50;;;;;;;15.73;42.56;101861.90;1792590;78;21709;-72
2021/09/30 10:10:59;;;;;;;6.47;3.00;;;;;;;15.86;41.32;101864.45;1817435;78;20972;-71
2021/09/30 10:13:27;;;;;;;5.92;2.80;;;;;;;15.89;41.46;101863.71;1823398;78;20987;-74
2021/09/30 10:15:55;;;;;;;4.53;2.80;;;;;;;15.97;41.03;101855.97;1806869;78;21106;-73
2021/09/30 10:18:24;;;;;;;4.15;3.08;;;;;;;15.95;40.59;101856.58;1773039;78;21434;-71
2021/09/30 10:20:53;;;;;;;4.55;2.77;;;;;;;15.86;41.61;101851.13;1777398;80;21036;-72
2021/09/30 10:23:28;;;;;;;4.92;2.72;;;;;;;16.00;41.52;101854.88;1747610;80;21047;-71
2021/09/30 10:25:58;;;;;;;5.35;3.00;;;;;;;16.13;40.63;101842.30;1741597;80;20957;-72
2021/09/30 10:28:26;;;;;;;4.40;3.10;;;;;;;16.23;40.77;101845.92;1767190;80;20955;-73
2021/09/30 10:30:53;;;;;;;7.17;3.22;;;;;;;16.29;39.94;101839.23;1798025;78;20983;-72
2021/09/30 10:33:23;;;;;;;5.22;3.20;;;;;;;16.26;40.75;101843.48;1765929;78;21830;-72
2021/09/30 10:35:52;;;;;;;8.23;3.05;;;;;;;16.39;40.91;101835.34;1820493;78;20979;-72
2021/09/30 10:38:27;;;;;;;4.60;2.92;;;;;;;16.59;41.14;101838.08;1809084;78;21527;-70
2021/09/30 10:41:09;;;;;;;6.60;3.10;;;;;;;16.77;40.94;101828.24;1823393;78;20957;-72
2021/09/30 10:43:44;;;;;;;5.50;3.12;;;;;;;17.03;40.93;101830.09;1793233;80;20945;-71
2021/09/30 10:46:26;;;;;;;6.05;3.10;;;;;;;17.22;38.87;101832.91;1768500;81;23908;-72
2021/09/30 10:48:54;;;;;;;8.88;3.30;;;;;;;17.08;38.42;101831.41;1785688;80;20929;-72
2021/09/30 10:51:22;;;;;;;4.65;3.20;;;;;;;16.96;39.06;101831.57;1754712;80;21020;-73
2021/09/30 10:53:54;;;;;;;6.55;3.40;;;;;;;17.02;39.23;101827.91;1774669;80;21460;-72
2021/09/30 10:56:41;;;;;;;5.17;3.12;;;;;;;17.15;39.33;101823.72;1761877;81;21028;-71
2021/09/30 10:59:19;;;;;;;6.35;3.60;;;;;;;17.26;38.79;101818.31;1784800;80;22842;-72
2021/09/30 11:01:52;;;;;;;4.37;3.02;;;;;;;17.37;38.17;101824.08;1792097;80;20921;-73
2021/09/30 11:04:19;;;;;;;10.38;3.00;;;;;;;17.41;37.48;101824.19;1779130;80;20988;-74
2021/09/30 11:07:14;;;;;;;5.20;2.70;;;;;;;17.21;37.07;101823.70;1765718;80;21008;-73
2021/09/30 11:09:41;;;;;;;4.50;2.90;;;;;;;16.95;37.38;101823.20;1765971;80;21375;-72
2021/09/30 11:12:12;;;;;;;8.28;2.80;;;;;;;16.83;36.99;101819.74;1767401;81;22811;-73
2021/09/30 11:14:57;;;;;;;6.97;2.87;;;;;;;16.81;38.23;101821.20;1760496;81;21005;-73
2021/09/30 11:17:38;;;;;;;6.28;3.02;;;;;;;16.91;38.05;101815.11;1793122;80;20980;-73
2021/09/30 11:20:37;;;;;;;3.20;2.72;;;;;;;17.04;38.43;101815.28;1773790;81;20955;-70
2021/09/30 11:23:04;;;;;;;8.03;2.98;;;;;;;17.36;39.19;101813.03;1756389;81;20979;-71
2021/09/30 11:26:11;;;;;;;3.95;2.70;;;;;;;17.56;37.72;101809.50;1773217;81;21490;-72
2021/09/30 11:28:37;;;;;;;9.65;3.58;;;;;;;17.71;37.78;101814.91;1770934;81;21496;-73
2021/09/30 11:31:27;;;;;;;4.05;3.20;;;;;;;17.80;36.49;101813.75;1773503;81;20940;-72
2021/09/30 11:33:59;;;;;;;3.70;3.00;;;;;;;17.60;36.29;101812.77;1746962;81;20991;-73
2021/09/30 11:36:35;;;;;;;3.95;3.30;;;;;;;17.39;37.24;101804.30;1740373;81;21030;-75
2021/09/30 11:39:03;;;;;;;5.37;3.52;;;;;;;17.47;38.00;101806.31;1754127;81;22523;-73
2021/09/30 11:41:32;;;;;;;6.80;3.10;;;;;;;17.63;38.86;101805.82;1762640;81;21054;-74
2021/09/30 11:43:59;;;;;;;5.22;3.12;;;;;;;17.90;37.34;101808.80;1753650;81;21512;-76
2021/09/30 11:46:32;;;;;;;5.50;3.10;;;;;;;18.08;36.93;101805.49;1770636;79;21507;-74
2021/09/30 11:49:05;;;;;;;3.92;3.20;;;;;;;18.16;36.43;101805.17;1767546;81;20968;-74
2021/09/30 11:51:42;;;;;;;7.80;3.52;;;;;;;18.09;35.91;101797.83;1758930;81;22511;-75
2021/09/30 11:54:12;;;;;;;6.72;3.00;;;;;;;17.96;35.68;101806.09;1758784;81;21024;-74
2021/09/30 11:56:50;;;;;;;4.03;3.22;;;;;;;17.90;36.94;101795.44;1758760;81;21023;-75
2021/09/30 11:59:18;;;;;;;4.10;2.95;;;;;;;17.97;36.73;101795.26;1758741;81;21071;-72
2021/09/30 12:01:47;;;;;;;8.23;3.30;;;;;;;18.16;36.04;101797.16;1756825;81;21015;-73
2021/09/30 12:04:37;;;;;;;6.37;3.22;;;;;;;18.11;36.09;101796.70;1750776;81;21839;-74
2021/09/30 12:07:04;;;;;;;4.97;3.27;;;;;;;17.98;36.24;101791.60;1749496;80;20941;-73
2021/09/30 12:09:35;;;;;;;6.83;3.00;;;;;;;17.97;35.56;101789.07;1790049;80;20973;-73
2021/09/30 12:12:06;;;;;;;5.12;3.17;;;;;;;17.89;35.46;101783.55;1790255;80;20961;-73
2021/09/30 12:14:39;;;;;;;5.97;3.60;;;;;;;17.80;35.97;101785.69;1790070;80;20952;-73
2021/09/30 12:17:13;;;;;;;5.70;3.27;;;;;;;17.84;36.36;101784.42;1787059;80;20981;-73
2021/09/30 12:19:44;;;;;;;6.05;3.52;;;;;;;18.11;36.88;101783.82;1783338;80;20984;-73
2021/09/30 12:22:18;;;;;;;6.60;3.30;;;;;;;18.48;35.96;101774.69;1790174;80;21034;-72
2021/09/30 12:24:51;;;;;;;7.33;3.58;;;;;;;18.59;34.87;101774.55;1789884;79;20937;-72
2021/09/30 12:27:19;;;;;;;7.50;3.87;;;;;;;18.48;35.00;101765.32;1790536;80;21529;-73
2021/09/30 12:29:49;;;;;;;6.20;3.55;;;;;;;18.26;35.91;101763.25;1766544;80;21846;-74
2021/09/30 12:32:20;;;;;;;8.03;3.20;;;;;;;18.45;36.07;101769.63;1759020;81;21040;-72
2021/09/30 12:34:57;;;;;;;5.40;3.17;;;;;;;18.82;35.83;101766.64;1759377;80;21027;-72
2021/09/30 12:37:32;;;;;;;8.25;3.27;;;;;;;19.10;35.30;101772.09;1784415;80;20938;-72
2021/09/30 12:40:10;;;;;;;8.23;3.30;;;;;;;19.38;34.90;101766.33;1785818;80;21067;-73
2021/09/30 12:42:38;;;;;;;5.78;3.20;;;;;;;19.58;34.93;101764.46;1756717;81;21855;-73
2021/09/30 12:45:06;;;;;;;5.37;3.25;;;;;;;19.81;33.16;101763.11;1751578;81;21381;-72
2021/09/30 12:47:42;;;;;;;7.40;3.08;;;;;;;19.67;33.54;101770.28;1778025;80;20937;-72
2021/09/30 12:50:16;;;;;;;5.87;3.30;;;;;;;19.67;33.63;101763.08;1756620;80;21458;-73
2021/09/30 12:52:43;;;;;;;4.25;3.00;;;;;;;19.81;34.10;101767.14;1744974;81;20957;-72
2021/09/30 12:55:22;;;;;;;8.20;3.00;;;;;;;19.68;33.43;101756.73;1726568;83;21495;-73
2021/09/30 12:57:48;;;;;;;4.45;3.12;;;;;;;19.81;33.02;101759.09;1723653;81;21498;-74
2021/09/30 13:00:18;;;;;;;6.97;3.27;;;;;;;19.78;33.15;101756.69;1781670;80;20925;-73
2021/09/30 13:02:46;;;;;;;4.65;3.10;;;;;;;19.94;33.69;101754.72;1784082;80;20988;-75
2021/09/30 13:05:13;;;;;;;7.58;3.20;;;;;;;20.17;33.62;101753.80;1784434;80;20997;-72
2021/09/30 13:07:52;;;;;;;6.60;3.20;;;;;;;20.43;32.94;101748.58;1763612;80;21775;-73
2021/09/30 13:10:20;;;;;;;5.20;3.12;;;;;;;20.40;31.63;101745.68;1745513;81;21035;-73
2021/09/30 13:13:08;;;;;;;5.00;3.27;;;;;;;19.96;31.59;101747.36;1756595;81;21613;-73
2021/09/30 13:15:43;;;;;;;6.40;3.30;;;;;;;19.55;32.23;101749.99;1756914;81;20984;-72
2021/09/30 13:18:12;;;;;;;5.62;3.27;;;;;;;19.19;32.68;101751.14;1743554;81;20988;-72
2021/09/30 13:20:40;;;;;;;4.80;3.10;;;;;;;19.30;33.35;101744.30;1723523;81;21857;-73
2021/09/30 13:23:07;;;;;;;5.95;2.98;;;;;;;19.30;32.59;101744.30;1753084;81;21555;-73
2021/09/30 13:25:33;;;;;;;5.55;3.10;;;;;;;19.28;33.23;101736.88;1753141;81;21000;-74
2021/09/30 13:28:02;;;;;;;4.67;3.20;;;;;;;19.51;32.68;101741.91;1779508;80;21056;-73
2021/09/30 13:30:34;;;;;;;4.67;3.10;;;;;;;19.41;32.38;101733.41;1730177;81;20995;-74
2021/09/30 13:33:03;;;;;;;6.10;3.70;;;;;;;19.40;33.63;101730.88;1753161;81;22675;-73
2021/09/30 13:35:34;;;;;;;5.47;3.65;;;;;;;19.61;32.53;101724.83;1753016;80;39192;-72
2021/09/30 13:38:00;;;;;;;5.80;3.37;;;;;;;19.76;32.56;101714.94;1743933;81;21024;-71
2021/09/30 13:40:27;;;;;;;5.80;2.95;;;;;;;19.75;31.52;101720.80;1756491;81;20945;-74
2021/09/30 13:42:54;;;;;;;7.58;3.08;;;;;;;19.66;31.52;101717.67;1751362;81;21354;-74
2021/09/30 13:45:21;;;;;;;5.28;3.05;;;;;;;19.38;32.03;101714.92;1732952;81;22462;-74
2021/09/30 13:47:47;;;;;;;3.95;2.72;;;;;;;19.03;31.69;101717.44;1753167;81;20964;-72
2021/09/30 13:50:19;;;;;;;5.25;2.92;;;;;;;18.81;32.63;101720.75;1753085;81;20988;-72
2021/09/30 13:52:49;;;;;;;6.87;3.00;;;;;;;18.86;33.23;101723.86;1753043;81;21040;-72
2021/09/30 13:55:16;;;;;;;8.05;3.30;;;;;;;19.28;33.15;101719.47;1759935;80;21478;-75
2021/09/30 13:57:43;;;;;;;5.47;2.75;;;;;;;19.55;32.74;101715.99;1753111;81;22224;-73
2021/09/30 14:00:13;;;;;;;4.65;2.70;;;;;;;19.79;32.33;101710.14;1758198;80;20997;-74
2021/09/30 14:02:41;;;;;;;6.05;3.02;;;;;;;19.88;31.48;101712.40;1784165;80;20984;-73
2021/09/30 14:05:10;;;;;;;6.65;2.90;;;;;;;19.80;31.57;101710.98;1756745;81;21136;-72
2021/09/30 14:07:36;;;;;;;7.12;3.00;;;;;;;19.61;31.39;101706.56;1737848;81;21429;-73
2021/09/30 14:10:05;;;;;;;5.33;3.10;;;;;;;19.39;31.80;101701.87;1753146;81;22200;-77
2021/09/30 14:12:35;;;;;;;6.20;3.25;;;;;;;19.25;32.28;101714.91;1752912;81;20941;-74
2021/09/30 14:15:06;;;;;;;3.67;2.90;;;;;;;19.05;31.80;101713.62;1751576;81;21028;-78
2021/09/30 14:17:34;;;;;;;5.62;3.10;;;;;;;18.80;32.72;101707.52;1758399;80;21550;-78
2021/09/30 14:20:03;;;;;;;5.97;3.15;;;;;;;18.62;32.92;101710.53;1753074;81;21079;-74
2021/09/30 14:22:32;;;;;;;7.67;3.20;;;;;;;18.66;33.66;101714.16;1752341;81;21526;-73
2021/09/30 14:24:58;;;;;;;4.12;3.10;;;;;;;18.74;33.39;101709.45;1753073;81;21000;-72
2021/09/30 14:27:28;;;;;;;4.67;3.00;;;;;;;18.71;33.58;101711.05;1753103;81;20981;-72